createdAt,value
2019-03-20T00:00:40.712Z,3.77
2019-03-20T00:03:09.148Z,3.80
2019-03-20T00:05:37.620Z,4.10
2019-03-20T00:08:06.140Z,4.20
2019-03-20T00:10:34.784Z,4.30
2019-03-20T00:13:03.246Z,3.77
2019-03-20T00:18:23.567Z,4.30
2019-03-20T00:20:52.131Z,4.83
2019-03-20T00:23:20.625Z,4.10
2019-03-20T00:25:49.096Z,4.27
2019-03-20T00:28:17.605Z,4.57
2019-03-20T00:30:46.093Z,4.80
2019-03-20T00:33:14.596Z,4.77
2019-03-20T00:35:43.068Z,5.00
2019-03-20T00:38:11.581Z,4.77
2019-03-20T00:40:40.087Z,5.03
2019-03-20T00:43:08.548Z,4.57
2019-03-20T00:45:37.032Z,4.73
2019-03-20T00:48:05.684Z,5.40
2019-03-20T00:50:34.521Z,4.90
2019-03-20T00:53:03.017Z,5.20
2019-03-20T00:55:31.550Z,4.77
2019-03-20T00:58:00.082Z,5.20
2019-03-20T01:00:28.610Z,4.57
2019-03-20T01:02:57.068Z,4.50
2019-03-20T01:05:25.502Z,5.17
2019-03-20T01:07:53.948Z,5.13
2019-03-20T01:10:23.647Z,5.13
2019-03-20T01:12:52.143Z,5.37
2019-03-20T01:15:20.824Z,5.90
2019-03-20T01:17:49.463Z,5.10
2019-03-20T01:20:22.467Z,5.67
2019-03-20T01:22:51.087Z,6.00
2019-03-20T01:25:19.695Z,5.57
2019-03-20T01:27:48.242Z,5.37
2019-03-20T01:30:38.124Z,6.20
2019-03-20T01:33:14.180Z,5.80
2019-03-20T01:35:42.989Z,5.67
2019-03-20T01:38:11.638Z,6.37
2019-03-20T01:40:40.965Z,5.50
2019-03-20T01:43:09.700Z,5.60
2019-03-20T01:45:38.260Z,6.00
2019-03-20T01:48:06.754Z,5.57
2019-03-20T01:50:35.300Z,6.10
2019-03-20T01:53:03.830Z,5.93
2019-03-20T01:55:32.407Z,5.70
2019-03-20T01:58:00.878Z,6.47
2019-03-20T02:00:29.353Z,6.23
2019-03-20T02:02:57.921Z,6.10
2019-03-20T02:05:35.924Z,7.80
2019-03-20T02:07:59.263Z,6.47
2019-03-20T02:10:27.688Z,6.43
2019-03-20T02:12:58.544Z,6.57
2019-03-20T02:15:38.214Z,7.37
2019-03-20T02:17:59.448Z,7.87
2019-03-20T02:20:27.955Z,8.27
2019-03-20T02:22:57.447Z,8.33
2019-03-20T02:25:50.129Z,8.50
2019-03-20T02:28:18.802Z,10.70
2019-03-20T02:30:47.249Z,9.93
2019-03-20T02:33:15.717Z,10.97
2019-03-20T02:35:51.218Z,13.57
2019-03-20T02:38:15.625Z,11.10
2019-03-20T02:40:44.721Z,12.73
2019-03-20T02:43:24.751Z,12.93
2019-03-20T02:45:53.219Z,12.73
2019-03-20T02:48:21.640Z,12.37
2019-03-20T02:50:50.168Z,16.37
2019-03-20T02:53:18.670Z,17.47
2019-03-20T02:55:47.177Z,21.07
2019-03-20T02:58:16.935Z,20.23
2019-03-20T03:00:46.334Z,17.87
2019-03-20T03:03:16.107Z,17.87
2019-03-20T03:05:45.032Z,18.20
2019-03-20T03:08:15.716Z,18.07
2019-03-20T03:10:46.382Z,16.00
2019-03-20T03:13:15.566Z,17.17
2019-03-20T03:15:48.597Z,18.00
2019-03-20T03:18:17.127Z,17.13
2019-03-20T03:20:45.624Z,16.90
2019-03-20T03:23:16.640Z,14.67
2019-03-20T03:25:46.048Z,16.93
2019-03-20T03:28:18.633Z,15.63
2019-03-20T03:30:49.735Z,15.93
2019-03-20T03:33:18.177Z,16.50
2019-03-20T03:36:04.660Z,16.13
2019-03-20T03:38:44.667Z,18.83
2019-03-20T03:41:14.309Z,14.70
2019-03-20T03:43:44.021Z,14.33
2019-03-20T03:46:15.334Z,14.17
2019-03-20T03:48:44.923Z,14.63
2019-03-20T03:51:14.727Z,14.57
2019-03-20T03:53:45.910Z,14.30
2019-03-20T03:56:14.731Z,14.10
2019-03-20T03:58:44.118Z,14.80
2019-03-20T04:01:13.922Z,13.50
2019-03-20T04:07:41.256Z,13.10
2019-03-20T04:10:15.427Z,13.07
2019-03-20T04:12:45.245Z,12.80
2019-03-20T04:15:16.045Z,12.10
2019-03-20T04:17:46.038Z,11.20
2019-03-20T04:20:20.576Z,11.97
2019-03-20T04:22:49.099Z,12.20
2019-03-20T04:25:17.692Z,12.33
2019-03-20T04:27:52.192Z,13.23
2019-03-20T04:30:41.565Z,13.53
2019-03-20T04:33:10.083Z,12.37
2019-03-20T04:35:41.258Z,12.47
2019-03-20T04:38:09.921Z,11.53
2019-03-20T04:40:38.515Z,11.23
2019-03-20T04:43:07.259Z,11.90
2019-03-20T04:45:38.583Z,10.83
2019-03-20T04:48:07.114Z,11.57
2019-03-20T04:50:38.472Z,12.20
2019-03-20T04:53:06.959Z,12.93
2019-03-20T04:55:38.585Z,11.40
2019-03-20T04:58:07.085Z,11.03
2019-03-20T05:00:38.747Z,11.67
2019-03-20T05:03:07.271Z,10.90
2019-03-20T05:05:37.127Z,12.43
2019-03-20T05:08:05.621Z,12.33
2019-03-20T05:10:36.726Z,12.40
2019-03-20T05:13:05.276Z,13.10
2019-03-20T05:15:34.390Z,14.70
2019-03-20T05:18:02.856Z,13.67
2019-03-20T05:20:33.965Z,13.53
2019-03-20T05:23:09.517Z,13.07
2019-03-20T05:25:39.214Z,14.20
2019-03-20T05:28:07.668Z,14.10
2019-03-20T05:30:36.133Z,15.57
2019-03-20T05:33:04.654Z,15.17
2019-03-20T05:35:36.025Z,16.90
2019-03-20T05:38:04.511Z,16.00
2019-03-20T05:40:33.068Z,15.40
2019-03-20T05:43:01.677Z,16.10
2019-03-20T05:45:31.247Z,14.97
2019-03-20T05:48:00.294Z,15.33
2019-03-20T05:50:31.746Z,14.63
2019-03-20T05:53:00.250Z,14.47
2019-03-20T05:55:29.942Z,15.00
2019-03-20T05:57:58.482Z,13.53
2019-03-20T06:00:31.468Z,14.13
2019-03-20T06:03:00.021Z,14.40
2019-03-20T06:05:30.552Z,14.37
2019-03-20T06:07:59.104Z,36.30
2019-03-20T06:10:27.947Z,149.70
2019-03-20T06:12:56.490Z,107.40
2019-03-20T06:15:24.953Z,43.17
2019-03-20T06:17:53.595Z,42.30
2019-03-20T06:20:22.092Z,58.10
2019-03-20T06:22:50.635Z,51.83
2019-03-20T06:25:21.821Z,51.80
2019-03-20T06:27:50.356Z,53.27
2019-03-20T06:30:21.133Z,34.57
2019-03-20T06:32:50.150Z,23.67
2019-03-20T06:35:21.891Z,19.60
2019-03-20T06:37:50.463Z,15.07
2019-03-20T06:40:19.090Z,15.90
2019-03-20T06:42:47.660Z,14.17
2019-03-20T06:45:19.417Z,10.07
2019-03-20T06:47:47.979Z,15.83
2019-03-20T06:50:23.413Z,12.00
2019-03-20T06:52:51.976Z,10.57
2019-03-20T06:55:24.445Z,10.87
2019-03-20T06:58:12.299Z,10.37
2019-03-20T07:00:51.546Z,12.27
2019-03-20T07:03:47.400Z,13.87
2019-03-20T07:06:24.869Z,11.90
2019-03-20T07:09:11.485Z,16.13
2019-03-20T07:11:39.948Z,13.70
2019-03-20T07:14:11.333Z,11.53
2019-03-20T07:16:39.761Z,12.20
2019-03-20T07:19:09.609Z,13.13
2019-03-20T07:21:38.068Z,12.97
2019-03-20T07:24:09.233Z,14.53
2019-03-20T07:26:37.689Z,15.27
2019-03-20T07:29:08.784Z,14.83
2019-03-20T07:31:37.283Z,13.30
2019-03-20T07:34:05.796Z,14.20
2019-03-20T07:36:34.345Z,14.80
2019-03-20T07:39:03.327Z,13.13
2019-03-20T07:41:31.771Z,15.57
2019-03-20T07:44:03.134Z,15.93
2019-03-20T07:46:31.649Z,17.63
2019-03-20T07:49:01.270Z,14.60
2019-03-20T07:51:29.711Z,15.77
2019-03-20T07:54:01.052Z,16.07
2019-03-20T07:56:29.558Z,16.60
2019-03-20T07:59:00.689Z,17.13
2019-03-20T08:01:29.166Z,16.73
2019-03-20T08:04:00.645Z,17.93
2019-03-20T08:06:29.090Z,19.10
2019-03-20T08:08:59.107Z,21.23
2019-03-20T08:11:27.587Z,19.10
2019-03-20T08:13:59.016Z,20.80
2019-03-20T08:16:27.465Z,20.33
2019-03-20T08:18:56.966Z,18.63
2019-03-20T08:21:25.451Z,20.13
2019-03-20T08:23:56.583Z,21.77
2019-03-20T08:26:25.036Z,19.77
2019-03-20T08:28:53.471Z,20.43
2019-03-20T08:31:21.917Z,18.07
2019-03-20T08:33:50.530Z,18.50
2019-03-20T08:36:18.977Z,19.07
2019-03-20T08:38:50.238Z,18.60
2019-03-20T08:41:18.751Z,21.20
2019-03-20T08:43:49.044Z,19.50
2019-03-20T08:46:17.541Z,18.93
2019-03-20T08:48:48.370Z,23.77
2019-03-20T08:51:17.119Z,23.13
2019-03-20T08:53:46.838Z,21.73
2019-03-20T08:56:15.299Z,22.37
2019-03-20T08:58:46.477Z,19.33
2019-03-20T09:01:14.955Z,19.37
2019-03-20T09:03:46.358Z,18.17
2019-03-20T09:06:14.888Z,19.00
2019-03-20T09:08:43.311Z,18.60
2019-03-20T09:11:11.775Z,16.17
2019-03-20T09:13:42.891Z,15.63
2019-03-20T09:16:11.406Z,13.17
2019-03-20T09:18:39.903Z,12.70
2019-03-20T09:21:08.326Z,11.30
2019-03-20T09:23:36.813Z,10.97
2019-03-20T09:26:05.441Z,11.27
2019-03-20T09:28:33.884Z,9.83
2019-03-20T09:31:02.323Z,10.33
2019-03-20T09:33:30.811Z,8.47
2019-03-20T09:35:59.228Z,8.33
2019-03-20T09:38:29.160Z,9.73
2019-03-20T09:40:57.591Z,8.80
2019-03-20T09:43:28.798Z,8.87
2019-03-20T09:45:57.265Z,9.13
2019-03-20T09:48:27.146Z,9.23
2019-03-20T09:50:55.593Z,8.07
2019-03-20T09:53:24.115Z,7.97
2019-03-20T09:55:52.624Z,7.73
2019-03-20T09:58:23.746Z,6.77
2019-03-20T10:00:52.212Z,7.37
2019-03-20T10:03:22.250Z,6.17
2019-03-20T10:05:50.701Z,6.43
2019-03-20T10:08:21.819Z,6.53
2019-03-20T10:10:50.337Z,6.07
2019-03-20T10:13:21.607Z,6.33
2019-03-20T10:15:50.092Z,4.93
2019-03-20T10:18:21.270Z,5.40
2019-03-20T10:20:49.713Z,5.47
2019-03-20T10:23:18.174Z,5.97
2019-03-20T10:25:46.600Z,5.80
2019-03-20T10:28:15.059Z,5.67
2019-03-20T10:30:43.502Z,4.93
2019-03-20T10:33:11.952Z,4.40
2019-03-20T10:35:49.964Z,4.40
2019-03-20T10:38:10.564Z,5.93
2019-03-20T10:40:39.019Z,4.80
2019-03-20T10:43:07.517Z,4.37
2019-03-20T10:45:35.940Z,4.00
2019-03-20T10:48:04.392Z,3.60
2019-03-20T10:50:35.606Z,3.90
2019-03-20T10:53:04.047Z,3.50
2019-03-20T10:55:36.488Z,4.03
2019-03-20T10:58:04.920Z,3.87
2019-03-20T11:00:40.768Z,2.70
2019-03-20T11:03:09.351Z,3.13
2019-03-20T11:05:38.751Z,2.83
2019-03-20T11:08:07.185Z,3.47
2019-03-20T11:10:38.688Z,2.93
2019-03-20T11:13:07.196Z,2.60
2019-03-20T11:15:35.717Z,2.80
2019-03-20T11:18:04.182Z,2.63
2019-03-20T11:20:35.663Z,1.50
2019-03-20T11:23:04.257Z,2.10
2019-03-20T11:25:35.759Z,2.77
2019-03-20T11:28:04.266Z,1.83
2019-03-20T11:30:36.173Z,2.00
2019-03-20T11:33:04.823Z,1.90
2019-03-20T11:35:36.519Z,2.00
2019-03-20T11:38:05.075Z,2.13
2019-03-20T11:40:38.232Z,2.60
2019-03-20T11:43:06.736Z,2.47
2019-03-20T11:45:36.526Z,3.00
2019-03-20T11:48:05.108Z,2.43
2019-03-20T11:50:43.779Z,2.40
2019-03-20T11:53:12.301Z,2.70
2019-03-20T11:55:42.797Z,2.93
2019-03-20T11:58:11.351Z,2.20
2019-03-20T12:00:39.847Z,2.30
2019-03-20T12:03:08.563Z,2.23
2019-03-20T12:05:42.705Z,2.20
2019-03-20T12:08:11.186Z,2.50
2019-03-20T12:10:42.301Z,2.30
2019-03-20T12:13:10.755Z,2.60
2019-03-20T12:15:42.414Z,2.00
2019-03-20T12:18:10.846Z,2.30
2019-03-20T12:20:42.376Z,2.40
2019-03-20T12:23:10.890Z,2.40
2019-03-20T12:25:42.335Z,2.40
2019-03-20T12:28:10.804Z,2.50
2019-03-20T12:30:42.840Z,2.43
2019-03-20T12:33:11.355Z,2.17
2019-03-20T12:35:47.419Z,2.10
2019-03-20T12:38:18.941Z,2.07
2019-03-20T12:40:47.391Z,2.40
2019-03-20T12:43:18.789Z,2.10
2019-03-20T12:45:47.316Z,2.00
2019-03-20T12:48:18.266Z,2.60
2019-03-20T12:50:48.419Z,2.00
2019-03-20T12:53:20.299Z,2.00
2019-03-20T12:56:30.228Z,2.10
2019-03-20T12:59:01.768Z,2.33
2019-03-20T13:01:30.256Z,1.90
2019-03-20T13:04:01.450Z,2.20
2019-03-20T13:06:29.878Z,1.90
2019-03-20T13:08:58.323Z,2.00
2019-03-20T13:11:26.804Z,2.13
2019-03-20T13:13:55.235Z,2.10
2019-03-20T13:16:23.703Z,2.27
2019-03-20T13:18:54.767Z,2.60
2019-03-20T13:21:23.229Z,2.10
2019-03-20T13:23:54.642Z,2.03
2019-03-20T13:26:23.104Z,2.00
2019-03-20T13:28:55.581Z,2.00
2019-03-20T13:31:24.477Z,2.00
2019-03-20T13:33:56.078Z,1.70
2019-03-20T13:36:24.513Z,2.00
2019-03-20T13:38:53.185Z,2.03
2019-03-20T13:41:21.893Z,2.00
2019-03-20T13:43:50.315Z,2.00
2019-03-20T13:46:18.757Z,2.00
2019-03-20T13:48:47.212Z,1.83
2019-03-20T13:51:15.639Z,2.20
2019-03-20T13:53:46.987Z,1.77
2019-03-20T13:56:15.559Z,2.13
2019-03-20T13:58:46.694Z,3.33
2019-03-20T14:01:15.194Z,2.10
2019-03-20T14:03:44.290Z,2.07
2019-03-20T14:06:12.729Z,1.90
2019-03-20T14:08:44.118Z,1.90
2019-03-20T14:11:12.523Z,1.80
2019-03-20T14:13:44.081Z,2.10
2019-03-20T14:16:12.539Z,1.87
2019-03-20T14:18:43.669Z,2.00
2019-03-20T14:21:12.137Z,1.80
2019-03-20T14:23:40.584Z,1.83
2019-03-20T14:26:09.063Z,1.60
2019-03-20T14:28:37.536Z,1.90
2019-03-20T14:31:05.972Z,2.53
2019-03-20T14:33:35.583Z,1.80
2019-03-20T14:36:04.019Z,1.90
2019-03-20T14:38:35.223Z,1.77
2019-03-20T14:41:03.691Z,1.70
2019-03-20T14:43:33.375Z,2.03
2019-03-20T14:46:01.799Z,2.13
2019-03-20T14:48:32.948Z,2.17
2019-03-20T14:51:03.980Z,2.00
2019-03-20T14:53:32.599Z,1.97
2019-03-20T14:56:20.474Z,2.10
2019-03-20T14:58:49.047Z,1.77
2019-03-20T15:01:18.819Z,1.93
2019-03-20T15:03:48.839Z,2.00
2019-03-20T15:06:17.653Z,2.20
2019-03-20T15:09:38.153Z,2.00
2019-03-20T15:12:29.376Z,2.00
2019-03-20T15:15:14.941Z,1.87
2019-03-20T15:17:43.893Z,1.80
2019-03-20T15:23:13.841Z,2.10
2019-03-20T15:26:12.878Z,2.20
2019-03-20T15:28:45.282Z,1.60
2019-03-20T15:31:15.512Z,2.07
2019-03-20T15:33:45.913Z,1.80
2019-03-20T15:36:14.701Z,1.80
2019-03-20T15:38:45.104Z,1.93
2019-03-20T15:41:15.854Z,2.13
2019-03-20T15:43:44.899Z,1.63
2019-03-20T15:46:15.547Z,1.70
2019-03-20T15:48:44.542Z,1.90
2019-03-20T15:51:16.186Z,2.40
2019-03-20T15:53:44.629Z,2.00
2019-03-20T15:56:13.616Z,1.80
2019-03-20T15:58:44.315Z,1.70
2019-03-20T16:01:13.632Z,1.60
2019-03-20T16:03:44.469Z,1.70
2019-03-20T16:06:13.378Z,1.87
2019-03-20T16:08:44.257Z,2.00
2019-03-20T16:11:14.618Z,2.30
2019-03-20T16:13:44.065Z,1.63
2019-03-20T16:16:15.423Z,1.90
2019-03-20T16:18:44.330Z,1.90
2019-03-20T16:21:14.600Z,1.53
2019-03-20T16:23:43.627Z,1.80
2019-03-20T16:26:14.463Z,1.70
2019-03-20T16:28:44.078Z,2.17
2019-03-20T16:31:13.850Z,1.73
2019-03-20T16:33:56.206Z,1.67
2019-03-20T16:36:25.996Z,1.60
2019-03-20T16:38:56.339Z,1.80
2019-03-20T16:41:25.131Z,1.50
2019-03-20T16:43:53.687Z,1.70
2019-03-20T16:46:22.145Z,1.60
2019-03-20T16:48:50.564Z,1.80
2019-03-20T16:51:19.009Z,1.77
2019-03-20T16:53:47.572Z,1.70
2019-03-20T16:56:16.261Z,1.80
2019-03-20T16:58:45.061Z,2.00
2019-03-20T17:01:14.607Z,1.70
2019-03-20T17:04:08.251Z,2.13
2019-03-20T17:06:41.039Z,2.00
2019-03-20T17:09:13.659Z,2.10
2019-03-20T17:11:44.109Z,1.90
2019-03-20T17:14:17.837Z,1.80
2019-03-20T17:19:49.121Z,1.60
2019-03-20T17:22:17.660Z,1.57
2019-03-20T17:24:46.182Z,1.80
2019-03-20T17:27:14.776Z,1.90
2019-03-20T17:29:44.930Z,2.00
2019-03-20T17:32:15.882Z,2.40
2019-03-20T17:34:44.584Z,1.70
2019-03-20T17:37:14.948Z,1.70
2019-03-20T17:39:43.849Z,1.43
2019-03-20T17:42:13.735Z,1.77
2019-03-20T17:44:44.315Z,1.70
2019-03-20T17:47:13.571Z,1.67
2019-03-20T17:49:43.774Z,2.13
2019-03-20T17:52:14.560Z,1.97
2019-03-20T17:54:46.638Z,1.83
2019-03-20T17:57:15.071Z,1.87
2019-03-20T17:59:44.081Z,1.80
2019-03-20T18:02:23.426Z,1.93
2019-03-20T18:04:44.876Z,2.47
2019-03-20T18:08:06.847Z,1.70
2019-03-20T18:10:38.274Z,1.67
2019-03-20T18:13:12.370Z,1.90
2019-03-20T18:15:45.653Z,2.27
2019-03-20T18:18:14.765Z,2.20
2019-03-20T18:20:44.092Z,1.80
2019-03-20T18:23:14.442Z,2.10
2019-03-20T18:25:44.259Z,2.13
2019-03-20T18:28:17.694Z,1.80
2019-03-20T18:30:46.397Z,1.90
2019-03-20T18:33:15.052Z,2.63
2019-03-20T18:35:44.033Z,1.90
2019-03-20T18:38:13.161Z,2.23
2019-03-20T18:40:42.966Z,2.30
2019-03-20T18:43:12.960Z,2.17
2019-03-20T18:45:44.343Z,2.10
2019-03-20T18:48:13.718Z,2.20
2019-03-20T18:50:50.217Z,1.87
2019-03-20T18:53:18.799Z,2.30
2019-03-20T18:55:47.281Z,1.90
2019-03-20T18:58:15.761Z,2.10
2019-03-20T19:00:47.014Z,2.70
2019-03-20T19:03:21.385Z,2.17
2019-03-20T19:06:14.544Z,2.10
2019-03-20T19:08:44.521Z,1.80
2019-03-20T19:11:13.242Z,2.03
2019-03-20T19:13:43.601Z,2.20
2019-03-20T19:16:13.022Z,2.00
2019-03-20T19:18:43.837Z,2.17
2019-03-20T19:21:13.459Z,1.87
2019-03-20T19:23:43.743Z,2.23
2019-03-20T19:26:13.677Z,2.33
2019-03-20T19:28:44.028Z,2.70
2019-03-20T19:31:15.694Z,2.60
2019-03-20T19:33:45.520Z,2.40
2019-03-20T19:36:14.410Z,2.57
2019-03-20T19:38:44.752Z,2.00
2019-03-20T19:41:14.123Z,2.63
2019-03-20T19:43:44.349Z,2.10
2019-03-20T19:46:21.807Z,2.63
2019-03-20T19:48:50.380Z,2.33
2019-03-20T19:51:18.812Z,2.70
2019-03-20T19:54:09.323Z,2.10
2019-03-20T19:56:41.841Z,2.23
2019-03-20T19:59:13.042Z,2.30
2019-03-20T20:01:44.456Z,2.60
2019-03-20T20:04:14.838Z,2.67
2019-03-20T20:06:44.363Z,2.40
2019-03-20T20:09:14.335Z,2.80
2019-03-20T20:11:44.361Z,3.33
2019-03-20T20:14:14.061Z,2.50
2019-03-20T20:16:43.896Z,2.63
2019-03-20T20:19:15.323Z,2.13
2019-03-20T20:21:45.487Z,2.60
2019-03-20T20:24:15.007Z,2.53
2019-03-20T20:26:43.524Z,2.50
2019-03-20T20:29:16.056Z,2.67
2019-03-20T20:31:46.304Z,2.60
2019-03-20T20:34:15.285Z,2.30
2019-03-20T20:36:44.502Z,2.70
2019-03-20T20:39:14.486Z,2.90
2019-03-20T20:41:44.481Z,2.93
2019-03-20T20:44:14.246Z,2.67
2019-03-20T20:46:55.228Z,3.00
2019-03-20T20:49:23.693Z,3.40
2019-03-20T20:51:52.251Z,3.60
2019-03-20T20:54:20.673Z,3.50
2019-03-20T20:56:49.111Z,3.27
2019-03-20T20:59:17.508Z,3.70
2019-03-20T21:01:45.958Z,3.60
2019-03-20T21:04:14.652Z,3.50
2019-03-20T21:06:44.746Z,3.50
2019-03-20T21:09:14.113Z,3.20
2019-03-20T21:11:44.534Z,3.03
2019-03-20T21:14:15.276Z,3.20
2019-03-20T21:16:44.521Z,2.93
2019-03-20T21:19:22.464Z,3.10
2019-03-20T21:22:04.330Z,3.10
2019-03-20T21:24:37.780Z,3.00
2019-03-20T21:27:35.625Z,3.30
2019-03-20T21:30:24.796Z,3.83
2019-03-20T21:32:59.797Z,3.20
2019-03-20T21:35:59.232Z,3.27
2019-03-20T21:38:30.103Z,3.00
2019-03-20T21:41:20.113Z,3.47
2019-03-20T21:44:12.967Z,3.20
2019-03-20T21:47:07.912Z,3.30
2019-03-20T21:49:39.949Z,3.40
2019-03-20T21:52:12.174Z,3.70
2019-03-20T21:55:13.188Z,3.50
2019-03-20T21:57:47.624Z,3.40
2019-03-20T22:00:47.405Z,5.10
2019-03-20T22:03:16.008Z,6.47
2019-03-20T22:06:10.875Z,3.90
2019-03-20T22:08:43.671Z,3.60
2019-03-20T22:11:30.452Z,3.80
2019-03-20T22:14:12.203Z,3.80
2019-03-20T22:17:17.389Z,3.80
2019-03-20T22:19:48.923Z,3.60
2019-03-20T22:22:38.990Z,3.90
2019-03-20T22:25:45.776Z,4.03
2019-03-20T22:28:30.002Z,4.13
2019-03-20T22:31:00.737Z,3.90
2019-03-20T22:34:16.619Z,4.23
2019-03-20T22:36:45.321Z,4.50
2019-03-20T22:39:18.478Z,4.70
2019-03-20T22:42:00.784Z,4.53
2019-03-20T22:44:31.650Z,6.13
2019-03-20T22:47:38.873Z,4.80
2019-03-20T22:50:20.050Z,4.20
2019-03-20T22:52:54.285Z,3.90
2019-03-20T22:55:55.351Z,4.20
2019-03-20T22:58:43.238Z,3.43
2019-03-20T23:01:17.829Z,3.70
2019-03-20T23:04:13.996Z,3.33
2019-03-20T23:06:43.678Z,4.07
2019-03-20T23:09:13.720Z,3.83
2019-03-20T23:11:43.202Z,4.17
2019-03-20T23:14:14.107Z,4.17
2019-03-20T23:16:43.579Z,4.20
2019-03-20T23:19:14.666Z,4.33
2019-03-20T23:21:45.756Z,4.13
2019-03-20T23:24:14.589Z,4.10
2019-03-20T23:26:45.366Z,3.83
2019-03-20T23:29:14.214Z,4.27
2019-03-20T23:31:43.676Z,4.80
2019-03-20T23:34:14.507Z,3.90
2019-03-20T23:36:44.724Z,4.63
2019-03-20T23:39:14.938Z,4.50
2019-03-20T23:41:43.635Z,4.00
2019-03-20T23:44:15.451Z,4.70
2019-03-20T23:46:44.503Z,5.37
2019-03-20T23:49:18.901Z,4.17
2019-03-20T23:51:47.342Z,4.53
2019-03-20T23:54:18.140Z,4.67
2019-03-20T23:56:46.609Z,4.90
2019-03-20T23:59:15.299Z,4.50
